Terminal Aerodrome Forecast
Issued by NWS

Home | Current Version | Previous Version | Text Only | Print | Product List | Glossary On
Versions: 1 2 3 4 5 6 7 8 9 10 11 12 13 14 15 16 17 18 19 20 21 22 23
000
FTUS45 KGJT 212329
TAFASE
TAF
KASE 212329Z 2200/2224 VRB03KT P6SM FEW014 BKN025 OVC060
     FM220200 20004KT P6SM FEW040 SCT070
     FM222000 33004KT P6SM FEW050 SCT100=

USA.gov is the U.S. government's official web portal to all federal, state and local government web resources and services.